Página principal
METAR-TAF:

METAR-TAF

Aeroportos :

Aeroporto Internacional de Volgogrado

Volgogrado, Rússia

latitude: 48-47N, longitude: 044-22E, altura: 145 m

Observação actual do tempo

O boletim foi feito há 34 minutos, às 21:00 UTC
Vento 19 kt de este
Temperatura -11°C
Humidade 61%
Pressão 1042 hPa
Visibilidade 10 km ou mais
sem nuvens abaixo de 1500 metros e sem cumulonimbus

METAR: URWW 202100Z 08010MPS CAVOK M11/M17 Q1042 R06/010070 NOSIG

Hora: 01:34 (21:34 UTC)

Previsão

O boletim foi feito há 1 hora e 37 minutos, às 19:57 UTC
Previsão válida de 20 às 21 UTC a 21 às 06 UTC
Vento 17 kt de este com rajadas de 31 kt
Visibilidade 10 km ou mais
Nuvens fragmentadasa uma altura de 2000 ft
Temporariamente
de 20 às 21 UTC a 21 às 06 UTC
Vento 21 kt de es-nordeste com rajadas de 35 kt

TAF: URWW 201957Z 2021/2106 09009G16MPS 9999 BKN020 TEMPO 2021/2106 07011G18MPS

Observações e previsões do tempo de mais de 4000 aeroportos (mensagens METAR e TAF).

As estações disponíveis são os pontos amarelos e vermelhos sobre o mapa.

Mova o rato sobre o mapa para ver o nome da estação.

Depois clique no ponto para visualizar as observações e previsões meteorológicas.

Para alterar o mapa : clique nos botões verdes com uma cruz preta para aumentar o zoom; no botão verde com uma pitada de zoom; ou nas setas verdes para mapas adjacentes.


METAR-TAF: